sensor_id;sensor_type;location;lat;lon;timestamp;temperature;humidity
23069;DHT22;11702;50.856;4.348;2022-08-19T00:02:25;20.10;99.90
23069;DHT22;11702;50.856;4.348;2022-08-19T00:04:50;20.10;99.90
23069;DHT22;11702;50.856;4.348;2022-08-19T00:07:18;20.00;99.90
23069;DHT22;11702;50.856;4.348;2022-08-19T00:09:44;20.00;99.90
23069;DHT22;11702;50.856;4.348;2022-08-19T00:12:10;19.90;99.90
23069;DHT22;11702;50.856;4.348;2022-08-19T00:14:36;19.90;99.90
23069;DHT22;11702;50.856;4.348;2022-08-19T00:17:02;20.00;99.90
23069;DHT22;11702;50.856;4.348;2022-08-19T00:19:28;20.00;99.90
23069;DHT22;11702;50.856;4.348;2022-08-19T00:21:54;20.10;99.90
23069;DHT22;11702;50.856;4.348;2022-08-19T00:24:22;20.00;99.90
23069;DHT22;11702;50.856;4.348;2022-08-19T00:26:48;20.00;99.90
23069;DHT22;11702;50.856;4.348;2022-08-19T00:29:18;19.90;99.90
23069;DHT22;11702;50.856;4.348;2022-08-19T00:31:45;19.90;99.90
23069;DHT22;11702;50.856;4.348;2022-08-19T00:34:12;19.90;99.90
23069;DHT22;11702;50.856;4.348;2022-08-19T00:36:38;19.90;99.90
23069;DHT22;11702;50.856;4.348;2022-08-19T00:39:05;19.90;99.90
23069;DHT22;11702;50.856;4.348;2022-08-19T00:41:30;19.90;99.90
23069;DHT22;11702;50.856;4.348;2022-08-19T00:44:13;19.90;99.90
23069;DHT22;11702;50.856;4.348;2022-08-19T00:46:41;19.90;99.90
23069;DHT22;11702;50.856;4.348;2022-08-19T00:49:34;20.10;99.90
23069;DHT22;11702;50.856;4.348;2022-08-19T00:52:07;20.10;99.90
23069;DHT22;11702;50.856;4.348;2022-08-19T00:54:35;20.10;99.90
23069;DHT22;11702;50.856;4.348;2022-08-19T00:57:05;20.10;99.90
23069;DHT22;11702;50.856;4.348;2022-08-19T00:59:34;20.20;99.90
23069;DHT22;11702;50.856;4.348;2022-08-19T01:02:01;20.20;99.90
23069;DHT22;11702;50.856;4.348;2022-08-19T01:04:26;20.20;99.90
23069;DHT22;11702;50.856;4.348;2022-08-19T01:06:52;20.20;99.90
23069;DHT22;11702;50.856;4.348;2022-08-19T01:09:18;20.20;99.90
23069;DHT22;11702;50.856;4.348;2022-08-19T01:11:44;20.30;99.90
23069;DHT22;11702;50.856;4.348;2022-08-19T01:14:10;20.30;99.90
23069;DHT22;11702;50.856;4.348;2022-08-19T01:16:38;20.30;99.90
23069;DHT22;11702;50.856;4.348;2022-08-19T01:19:27;20.30;99.90
23069;DHT22;11702;50.856;4.348;2022-08-19T01:24:49;20.20;99.90
23069;DHT22;11702;50.856;4.348;2022-08-19T01:27:14;20.10;99.90
23069;DHT22;11702;50.856;4.348;2022-08-19T01:29:42;19.90;99.90
23069;DHT22;11702;50.856;4.348;2022-08-19T01:32:12;19.90;99.90
23069;DHT22;11702;50.856;4.348;2022-08-19T01:34:39;19.80;99.90
23069;DHT22;11702;50.856;4.348;2022-08-19T01:37:09;19.80;99.90
23069;DHT22;11702;50.856;4.348;2022-08-19T01:39:40;19.70;99.90
23069;DHT22;11702;50.856;4.348;2022-08-19T01:42:08;19.60;99.90
23069;DHT22;11702;50.856;4.348;2022-08-19T01:44:35;19.40;99.90
23069;DHT22;11702;50.856;4.348;2022-08-19T01:47:01;19.30;99.90
23069;DHT22;11702;50.856;4.348;2022-08-19T01:49:28;19.30;99.90
23069;DHT22;11702;50.856;4.348;2022-08-19T01:51:55;19.30;99.90
23069;DHT22;11702;50.856;4.348;2022-08-19T01:54:23;19.20;99.90
23069;DHT22;11702;50.856;4.348;2022-08-19T01:56:50;19.20;99.90
23069;DHT22;11702;50.856;4.348;2022-08-19T01:59:19;19.20;99.90
23069;DHT22;11702;50.856;4.348;2022-08-19T02:01:46;19.10;99.90
23069;DHT22;11702;50.856;4.348;2022-08-19T02:04:11;19.00;99.90
23069;DHT22;11702;50.856;4.348;2022-08-19T02:06:37;19.00;99.90
23069;DHT22;11702;50.856;4.348;2022-08-19T02:09:04;18.90;99.90
23069;DHT22;11702;50.856;4.348;2022-08-19T02:11:33;18.80;99.90
23069;DHT22;11702;50.856;4.348;2022-08-19T02:14:01;18.80;99.90
23069;DHT22;11702;50.856;4.348;2022-08-19T02:16:31;18.80;99.90
23069;DHT22;11702;50.856;4.348;2022-08-19T02:18:57;18.70;99.90
23069;DHT22;11702;50.856;4.348;2022-08-19T02:21:23;18.70;99.90
23069;DHT22;11702;50.856;4.348;2022-08-19T02:23:50;18.70;99.90
23069;DHT22;11702;50.856;4.348;2022-08-19T02:26:16;18.60;99.90
23069;DHT22;11702;50.856;4.348;2022-08-19T02:28:42;18.60;99.90
23069;DHT22;11702;50.856;4.348;2022-08-19T02:31:11;18.50;99.90
23069;DHT22;11702;50.856;4.348;2022-08-19T02:33:37;18.60;99.90
23069;DHT22;11702;50.856;4.348;2022-08-19T02:36:05;18.60;99.90
23069;DHT22;11702;50.856;4.348;2022-08-19T02:38:31;18.60;99.90
23069;DHT22;11702;50.856;4.348;2022-08-19T02:41:04;18.60;99.90
23069;DHT22;11702;50.856;4.348;2022-08-19T02:43:31;18.60;99.90
23069;DHT22;11702;50.856;4.348;2022-08-19T02:45:57;18.50;99.90
23069;DHT22;11702;50.856;4.348;2022-08-19T02:48:24;18.40;99.90
23069;DHT22;11702;50.856;4.348;2022-08-19T02:50:52;18.40;99.90
23069;DHT22;11702;50.856;4.348;2022-08-19T02:53:24;18.40;99.90
23069;DHT22;11702;50.856;4.348;2022-08-19T02:55:50;18.40;99.90
23069;DHT22;11702;50.856;4.348;2022-08-19T02:58:16;18.40;99.90
23069;DHT22;11702;50.856;4.348;2022-08-19T03:00:47;18.30;99.90
23069;DHT22;11702;50.856;4.348;2022-08-19T03:03:14;18.20;99.90
23069;DHT22;11702;50.856;4.348;2022-08-19T03:05:40;18.20;99.90
23069;DHT22;11702;50.856;4.348;2022-08-19T03:08:06;18.20;99.90
23069;DHT22;11702;50.856;4.348;2022-08-19T03:10:32;18.10;99.90
23069;DHT22;11702;50.856;4.348;2022-08-19T03:12:58;18.10;99.90
23069;DHT22;11702;50.856;4.348;2022-08-19T03:15:23;18.10;99.90
23069;DHT22;11702;50.856;4.348;2022-08-19T03:17:49;18.10;99.90
23069;DHT22;11702;50.856;4.348;2022-08-19T03:20:15;18.00;99.90
23069;DHT22;11702;50.856;4.348;2022-08-19T03:22:40;18.00;99.90
23069;DHT22;11702;50.856;4.348;2022-08-19T03:25:06;18.00;99.90
23069;DHT22;11702;50.856;4.348;2022-08-19T03:27:32;18.10;99.90
23069;DHT22;11702;50.856;4.348;2022-08-19T03:29:57;18.10;99.90
23069;DHT22;11702;50.856;4.348;2022-08-19T03:32:23;18.10;99.90
23069;DHT22;11702;50.856;4.348;2022-08-19T03:34:49;17.90;99.90
23069;DHT22;11702;50.856;4.348;2022-08-19T03:37:16;18.00;99.90
23069;DHT22;11702;50.856;4.348;2022-08-19T03:39:41;18.00;99.90
23069;DHT22;11702;50.856;4.348;2022-08-19T03:42:08;17.90;99.90
23069;DHT22;11702;50.856;4.348;2022-08-19T03:44:34;17.80;99.90
23069;DHT22;11702;50.856;4.348;2022-08-19T03:47:01;17.90;99.90
23069;DHT22;11702;50.856;4.348;2022-08-19T03:49:30;17.90;99.90
23069;DHT22;11702;50.856;4.348;2022-08-19T03:51:57;17.80;99.90
23069;DHT22;11702;50.856;4.348;2022-08-19T03:54:24;17.80;99.90
23069;DHT22;11702;50.856;4.348;2022-08-19T03:56:52;17.80;99.90
23069;DHT22;11702;50.856;4.348;2022-08-19T03:59:22;17.70;99.90
23069;DHT22;11702;50.856;4.348;2022-08-19T04:02:02;17.60;99.90
23069;DHT22;11702;50.856;4.348;2022-08-19T04:04:28;17.60;99.90
23069;DHT22;11702;50.856;4.348;2022-08-19T04:06:54;17.60;99.90
23069;DHT22;11702;50.856;4.348;2022-08-19T04:09:20;17.60;99.90
23069;DHT22;11702;50.856;4.348;2022-08-19T04:11:48;17.60;99.90
23069;DHT22;11702;50.856;4.348;2022-08-19T04:14:18;17.50;99.90
23069;DHT22;11702;50.856;4.348;2022-08-19T04:16:45;17.50;99.90
23069;DHT22;11702;50.856;4.348;2022-08-19T04:19:13;17.40;99.90
23069;DHT22;11702;50.856;4.348;2022-08-19T04:21:39;17.40;99.90
23069;DHT22;11702;50.856;4.348;2022-08-19T04:24:09;17.40;99.90
23069;DHT22;11702;50.856;4.348;2022-08-19T04:26:36;17.30;99.90
23069;DHT22;11702;50.856;4.348;2022-08-19T04:29:06;17.30;99.90
23069;DHT22;11702;50.856;4.348;2022-08-19T04:31:32;17.30;99.90
23069;DHT22;11702;50.856;4.348;2022-08-19T04:34:04;17.20;99.90
23069;DHT22;11702;50.856;4.348;2022-08-19T04:36:35;17.20;99.90
23069;DHT22;11702;50.856;4.348;2022-08-19T04:39:06;17.20;99.90
23069;DHT22;11702;50.856;4.348;2022-08-19T04:41:32;17.10;99.90
23069;DHT22;11702;50.856;4.348;2022-08-19T04:44:17;17.10;99.90
23069;DHT22;11702;50.856;4.348;2022-08-19T04:46:46;17.10;99.90
23069;DHT22;11702;50.856;4.348;2022-08-19T04:49:13;17.20;99.90
23069;DHT22;11702;50.856;4.348;2022-08-19T04:51:42;17.30;99.90
23069;DHT22;11702;50.856;4.348;2022-08-19T04:54:08;17.30;99.90
23069;DHT22;11702;50.856;4.348;2022-08-19T04:56:33;17.20;99.90
23069;DHT22;11702;50.856;4.348;2022-08-19T04:58:59;17.20;99.90
23069;DHT22;11702;50.856;4.348;2022-08-19T05:01:29;17.30;99.90
23069;DHT22;11702;50.856;4.348;2022-08-19T05:03:56;17.30;99.90
23069;DHT22;11702;50.856;4.348;2022-08-19T05:06:23;17.30;99.90
23069;DHT22;11702;50.856;4.348;2022-08-19T05:08:49;17.30;99.90
23069;DHT22;11702;50.856;4.348;2022-08-19T05:11:31;17.30;99.90
23069;DHT22;11702;50.856;4.348;2022-08-19T05:13:57;17.20;99.90
23069;DHT22;11702;50.856;4.348;2022-08-19T05:16:24;17.30;99.90
23069;DHT22;11702;50.856;4.348;2022-08-19T05:18:50;17.30;99.90
23069;DHT22;11702;50.856;4.348;2022-08-19T05:21:35;17.40;99.90
23069;DHT22;11702;50.856;4.348;2022-08-19T05:24:21;17.50;99.90
23069;DHT22;11702;50.856;4.348;2022-08-19T05:26:49;17.70;99.90
23069;DHT22;11702;50.856;4.348;2022-08-19T05:29:18;17.90;99.90
23069;DHT22;11702;50.856;4.348;2022-08-19T05:31:44;18.20;99.90
23069;DHT22;11702;50.856;4.348;2022-08-19T05:34:10;18.40;99.90
23069;DHT22;11702;50.856;4.348;2022-08-19T05:36:39;18.30;99.90
23069;DHT22;11702;50.856;4.348;2022-08-19T05:39:06;18.40;99.90
23069;DHT22;11702;50.856;4.348;2022-08-19T05:41:31;18.60;99.90
23069;DHT22;11702;50.856;4.348;2022-08-19T05:43:57;18.80;99.90
23069;DHT22;11702;50.856;4.348;2022-08-19T05:46:23;19.10;99.90
23069;DHT22;11702;50.856;4.348;2022-08-19T05:48:49;19.30;99.90
23069;DHT22;11702;50.856;4.348;2022-08-19T05:51:15;19.50;99.90
23069;DHT22;11702;50.856;4.348;2022-08-19T05:53:41;19.60;99.90
23069;DHT22;11702;50.856;4.348;2022-08-19T05:56:09;19.70;99.90
23069;DHT22;11702;50.856;4.348;2022-08-19T05:58:37;19.70;99.90
23069;DHT22;11702;50.856;4.348;2022-08-19T06:01:04;19.80;99.90
23069;DHT22;11702;50.856;4.348;2022-08-19T06:03:35;19.80;99.90
23069;DHT22;11702;50.856;4.348;2022-08-19T06:06:03;19.90;99.90
23069;DHT22;11702;50.856;4.348;2022-08-19T06:08:29;20.00;99.90
23069;DHT22;11702;50.856;4.348;2022-08-19T06:10:55;20.20;99.90
23069;DHT22;11702;50.856;4.348;2022-08-19T06:13:21;20.20;99.90
23069;DHT22;11702;50.856;4.348;2022-08-19T06:15:48;20.20;99.90
23069;DHT22;11702;50.856;4.348;2022-08-19T06:18:14;20.30;99.90
23069;DHT22;11702;50.856;4.348;2022-08-19T06:20:41;20.50;99.90
23069;DHT22;11702;50.856;4.348;2022-08-19T06:23:07;20.70;99.90
23069;DHT22;11702;50.856;4.348;2022-08-19T06:25:33;20.70;99.90
23069;DHT22;11702;50.856;4.348;2022-08-19T06:27:59;20.70;99.90
23069;DHT22;11702;50.856;4.348;2022-08-19T06:30:24;20.50;99.90
23069;DHT22;11702;50.856;4.348;2022-08-19T06:32:50;20.60;99.90
23069;DHT22;11702;50.856;4.348;2022-08-19T06:35:16;20.90;99.90
23069;DHT22;11702;50.856;4.348;2022-08-19T06:37:41;21.00;99.90
23069;DHT22;11702;50.856;4.348;2022-08-19T06:40:08;21.30;99.90
23069;DHT22;11702;50.856;4.348;2022-08-19T06:42:36;21.30;99.90
23069;DHT22;11702;50.856;4.348;2022-08-19T06:45:04;21.50;99.90
23069;DHT22;11702;50.856;4.348;2022-08-19T06:47:30;21.70;99.90
23069;DHT22;11702;50.856;4.348;2022-08-19T06:49:59;21.70;99.90
23069;DHT22;11702;50.856;4.348;2022-08-19T06:52:34;21.80;99.90
23069;DHT22;11702;50.856;4.348;2022-08-19T06:55:01;21.80;99.90
23069;DHT22;11702;50.856;4.348;2022-08-19T06:57:27;22.00;99.90
23069;DHT22;11702;50.856;4.348;2022-08-19T06:59:56;22.10;99.90
23069;DHT22;11702;50.856;4.348;2022-08-19T07:02:22;22.20;99.90
23069;DHT22;11702;50.856;4.348;2022-08-19T07:04:51;22.10;99.90
23069;DHT22;11702;50.856;4.348;2022-08-19T07:07:17;22.20;99.90
23069;DHT22;11702;50.856;4.348;2022-08-19T07:09:44;22.20;99.90
23069;DHT22;11702;50.856;4.348;2022-08-19T07:12:12;22.20;99.90
23069;DHT22;11702;50.856;4.348;2022-08-19T07:14:40;22.10;99.90
23069;DHT22;11702;50.856;4.348;2022-08-19T07:17:09;22.00;99.90
23069;DHT22;11702;50.856;4.348;2022-08-19T07:19:35;22.10;99.90
23069;DHT22;11702;50.856;4.348;2022-08-19T07:22:03;22.30;99.90
23069;DHT22;11702;50.856;4.348;2022-08-19T07:24:30;22.50;99.90
23069;DHT22;11702;50.856;4.348;2022-08-19T07:26:57;22.50;99.90
23069;DHT22;11702;50.856;4.348;2022-08-19T07:29:26;22.60;99.90
23069;DHT22;11702;50.856;4.348;2022-08-19T07:31:52;22.60;99.90
23069;DHT22;11702;50.856;4.348;2022-08-19T07:34:21;22.80;99.90
23069;DHT22;11702;50.856;4.348;2022-08-19T07:36:47;22.90;99.90
23069;DHT22;11702;50.856;4.348;2022-08-19T07:39:23;23.10;99.90
23069;DHT22;11702;50.856;4.348;2022-08-19T07:41:49;23.30;99.90
23069;DHT22;11702;50.856;4.348;2022-08-19T07:44:16;23.50;99.90
23069;DHT22;11702;50.856;4.348;2022-08-19T07:46:45;23.70;99.90
23069;DHT22;11702;50.856;4.348;2022-08-19T07:49:12;23.90;99.90
23069;DHT22;11702;50.856;4.348;2022-08-19T07:51:38;23.80;99.90
23069;DHT22;11702;50.856;4.348;2022-08-19T07:54:04;23.80;99.90
23069;DHT22;11702;50.856;4.348;2022-08-19T07:56:30;23.90;99.90
23069;DHT22;11702;50.856;4.348;2022-08-19T07:58:55;24.20;99.90
23069;DHT22;11702;50.856;4.348;2022-08-19T08:01:26;24.40;99.90
23069;DHT22;11702;50.856;4.348;2022-08-19T08:03:54;24.50;99.90
23069;DHT22;11702;50.856;4.348;2022-08-19T08:06:40;24.90;99.90
23069;DHT22;11702;50.856;4.348;2022-08-19T08:09:27;25.20;99.90
23069;DHT22;11702;50.856;4.348;2022-08-19T08:11:59;25.10;99.90
23069;DHT22;11702;50.856;4.348;2022-08-19T08:14:27;25.40;99.90
23069;DHT22;11702;50.856;4.348;2022-08-19T08:16:53;25.50;99.90
23069;DHT22;11702;50.856;4.348;2022-08-19T08:19:22;25.60;99.90
23069;DHT22;11702;50.856;4.348;2022-08-19T08:21:49;25.40;99.90
23069;DHT22;11702;50.856;4.348;2022-08-19T08:24:16;25.70;99.90
23069;DHT22;11702;50.856;4.348;2022-08-19T08:26:43;25.80;99.90
23069;DHT22;11702;50.856;4.348;2022-08-19T08:29:10;25.50;99.90
23069;DHT22;11702;50.856;4.348;2022-08-19T08:31:42;25.30;99.90
23069;DHT22;11702;50.856;4.348;2022-08-19T08:34:08;25.30;99.90
23069;DHT22;11702;50.856;4.348;2022-08-19T08:36:38;25.20;99.90
23069;DHT22;11702;50.856;4.348;2022-08-19T08:39:13;25.10;99.90
23069;DHT22;11702;50.856;4.348;2022-08-19T08:42:01;25.00;99.90
23069;DHT22;11702;50.856;4.348;2022-08-19T08:44:43;25.00;99.90
23069;DHT22;11702;50.856;4.348;2022-08-19T08:47:14;25.00;99.90
23069;DHT22;11702;50.856;4.348;2022-08-19T08:49:48;25.10;99.90
23069;DHT22;11702;50.856;4.348;2022-08-19T08:54:50;24.80;99.90
23069;DHT22;11702;50.856;4.348;2022-08-19T09:00:16;24.60;99.90
23069;DHT22;11702;50.856;4.348;2022-08-19T09:02:44;24.60;99.90
23069;DHT22;11702;50.856;4.348;2022-08-19T09:05:11;24.80;99.90
23069;DHT22;11702;50.856;4.348;2022-08-19T09:07:52;24.90;99.90
23069;DHT22;11702;50.856;4.348;2022-08-19T09:10:52;24.90;99.90
23069;DHT22;11702;50.856;4.348;2022-08-19T09:13:32;25.10;99.90
23069;DHT22;11702;50.856;4.348;2022-08-19T09:16:32;25.10;99.90
23069;DHT22;11702;50.856;4.348;2022-08-19T09:19:05;25.10;99.90
23069;DHT22;11702;50.856;4.348;2022-08-19T09:21:31;25.30;99.90
23069;DHT22;11702;50.856;4.348;2022-08-19T09:23:57;25.30;99.90
23069;DHT22;11702;50.856;4.348;2022-08-19T09:26:24;25.20;99.90
23069;DHT22;11702;50.856;4.348;2022-08-19T09:28:52;25.20;99.90
23069;DHT22;11702;50.856;4.348;2022-08-19T09:31:27;25.40;99.90
23069;DHT22;11702;50.856;4.348;2022-08-19T09:33:53;25.50;99.90
23069;DHT22;11702;50.856;4.348;2022-08-19T09:36:24;25.50;99.90
23069;DHT22;11702;50.856;4.348;2022-08-19T09:38:50;25.50;99.90
23069;DHT22;11702;50.856;4.348;2022-08-19T09:41:19;25.20;99.90
23069;DHT22;11702;50.856;4.348;2022-08-19T09:43:49;25.20;99.90
23069;DHT22;11702;50.856;4.348;2022-08-19T09:46:19;25.20;99.90
23069;DHT22;11702;50.856;4.348;2022-08-19T09:48:47;25.40;99.90
23069;DHT22;11702;50.856;4.348;2022-08-19T09:51:25;25.50;99.90
23069;DHT22;11702;50.856;4.348;2022-08-19T09:53:52;25.50;99.90
23069;DHT22;11702;50.856;4.348;2022-08-19T09:56:21;25.50;99.90
23069;DHT22;11702;50.856;4.348;2022-08-19T09:58:48;25.40;99.90
23069;DHT22;11702;50.856;4.348;2022-08-19T10:01:25;25.50;99.90
23069;DHT22;11702;50.856;4.348;2022-08-19T10:03:54;25.70;99.90
23069;DHT22;11702;50.856;4.348;2022-08-19T10:06:24;25.90;99.90
23069;DHT22;11702;50.856;4.348;2022-08-19T10:08:51;25.90;99.90
23069;DHT22;11702;50.856;4.348;2022-08-19T10:11:18;26.20;99.90
23069;DHT22;11702;50.856;4.348;2022-08-19T10:13:45;26.30;99.90
23069;DHT22;11702;50.856;4.348;2022-08-19T10:16:14;26.30;99.90
23069;DHT22;11702;50.856;4.348;2022-08-19T10:18:40;26.30;99.90
23069;DHT22;11702;50.856;4.348;2022-08-19T10:21:29;26.40;99.90
23069;DHT22;11702;50.856;4.348;2022-08-19T10:23:58;26.50;99.90
23069;DHT22;11702;50.856;4.348;2022-08-19T10:26:33;26.50;99.90
23069;DHT22;11702;50.856;4.348;2022-08-19T10:28:59;26.40;99.90
23069;DHT22;11702;50.856;4.348;2022-08-19T10:31:27;26.00;99.90
23069;DHT22;11702;50.856;4.348;2022-08-19T10:33:53;25.70;99.90
23069;DHT22;11702;50.856;4.348;2022-08-19T10:36:28;25.80;99.90
23069;DHT22;11702;50.856;4.348;2022-08-19T10:38:56;25.60;99.90
23069;DHT22;11702;50.856;4.348;2022-08-19T10:41:26;25.60;99.90
23069;DHT22;11702;50.856;4.348;2022-08-19T10:43:54;25.60;99.90
23069;DHT22;11702;50.856;4.348;2022-08-19T10:46:21;25.20;99.90
23069;DHT22;11702;50.856;4.348;2022-08-19T10:48:47;25.20;99.90
23069;DHT22;11702;50.856;4.348;2022-08-19T10:51:13;25.40;99.90
23069;DHT22;11702;50.856;4.348;2022-08-19T10:53:59;25.70;99.90
23069;DHT22;11702;50.856;4.348;2022-08-19T10:56:25;25.70;99.90
23069;DHT22;11702;50.856;4.348;2022-08-19T10:59:10;25.40;99.90
23069;DHT22;11702;50.856;4.348;2022-08-19T11:01:40;25.40;99.90
23069;DHT22;11702;50.856;4.348;2022-08-19T11:04:06;25.30;99.90
23069;DHT22;11702;50.856;4.348;2022-08-19T11:06:36;25.20;99.90
23069;DHT22;11702;50.856;4.348;2022-08-19T11:09:04;25.30;99.90
23069;DHT22;11702;50.856;4.348;2022-08-19T11:11:30;25.30;99.90
23069;DHT22;11702;50.856;4.348;2022-08-19T11:13:57;25.20;99.90
23069;DHT22;11702;50.856;4.348;2022-08-19T11:16:25;25.30;99.90
23069;DHT22;11702;50.856;4.348;2022-08-19T11:18:57;25.60;99.90
23069;DHT22;11702;50.856;4.348;2022-08-19T11:21:31;26.10;99.90
23069;DHT22;11702;50.856;4.348;2022-08-19T11:23:59;26.60;99.90
23069;DHT22;11702;50.856;4.348;2022-08-19T11:26:26;26.80;99.90
23069;DHT22;11702;50.856;4.348;2022-08-19T11:28:53;26.90;99.90
23069;DHT22;11702;50.856;4.348;2022-08-19T11:31:22;27.00;99.90
23069;DHT22;11702;50.856;4.348;2022-08-19T11:33:48;26.90;99.90
23069;DHT22;11702;50.856;4.348;2022-08-19T11:36:18;26.90;99.90
23069;DHT22;11702;50.856;4.348;2022-08-19T11:38:47;26.50;99.90
23069;DHT22;11702;50.856;4.348;2022-08-19T11:41:15;25.90;99.90
23069;DHT22;11702;50.856;4.348;2022-08-19T11:43:41;25.60;99.90
23069;DHT22;11702;50.856;4.348;2022-08-19T11:46:09;25.80;99.90
23069;DHT22;11702;50.856;4.348;2022-08-19T11:48:36;26.20;99.90
23069;DHT22;11702;50.856;4.348;2022-08-19T11:51:07;26.30;99.90
23069;DHT22;11702;50.856;4.348;2022-08-19T11:53:34;26.70;99.90
23069;DHT22;11702;50.856;4.348;2022-08-19T11:56:00;27.10;99.90
23069;DHT22;11702;50.856;4.348;2022-08-19T11:58:26;27.60;99.90
23069;DHT22;11702;50.856;4.348;2022-08-19T12:00:52;27.70;99.90
23069;DHT22;11702;50.856;4.348;2022-08-19T12:03:18;27.70;99.90
23069;DHT22;11702;50.856;4.348;2022-08-19T12:05:45;27.90;99.90
23069;DHT22;11702;50.856;4.348;2022-08-19T12:08:11;28.00;99.90
23069;DHT22;11702;50.856;4.348;2022-08-19T12:10:38;28.20;99.90
23069;DHT22;11702;50.856;4.348;2022-08-19T12:13:05;28.20;99.90
23069;DHT22;11702;50.856;4.348;2022-08-19T12:15:36;28.10;99.90
23069;DHT22;11702;50.856;4.348;2022-08-19T12:18:03;28.40;99.90
23069;DHT22;11702;50.856;4.348;2022-08-19T12:20:29;28.90;99.90
23069;DHT22;11702;50.856;4.348;2022-08-19T12:22:54;29.20;99.90
23069;DHT22;11702;50.856;4.348;2022-08-19T12:25:20;29.40;99.90
23069;DHT22;11702;50.856;4.348;2022-08-19T12:27:46;29.20;99.90
23069;DHT22;11702;50.856;4.348;2022-08-19T12:30:13;29.10;99.90
23069;DHT22;11702;50.856;4.348;2022-08-19T12:32:39;29.10;99.90
23069;DHT22;11702;50.856;4.348;2022-08-19T12:35:06;29.30;99.90
23069;DHT22;11702;50.856;4.348;2022-08-19T12:37:32;29.50;99.90
23069;DHT22;11702;50.856;4.348;2022-08-19T12:39:58;29.50;99.90
23069;DHT22;11702;50.856;4.348;2022-08-19T12:42:24;29.40;99.90
23069;DHT22;11702;50.856;4.348;2022-08-19T12:44:50;29.20;99.90
23069;DHT22;11702;50.856;4.348;2022-08-19T12:47:17;28.80;99.90
23069;DHT22;11702;50.856;4.348;2022-08-19T12:49:43;29.00;99.90
23069;DHT22;11702;50.856;4.348;2022-08-19T12:52:09;29.20;99.90
23069;DHT22;11702;50.856;4.348;2022-08-19T12:54:36;29.40;99.90
23069;DHT22;11702;50.856;4.348;2022-08-19T12:57:06;29.50;99.90
23069;DHT22;11702;50.856;4.348;2022-08-19T12:59:34;29.60;99.90
23069;DHT22;11702;50.856;4.348;2022-08-19T13:02:00;29.70;99.90
23069;DHT22;11702;50.856;4.348;2022-08-19T13:04:25;29.60;99.90
23069;DHT22;11702;50.856;4.348;2022-08-19T13:06:51;29.70;99.90
23069;DHT22;11702;50.856;4.348;2022-08-19T13:09:17;29.40;99.90
23069;DHT22;11702;50.856;4.348;2022-08-19T13:11:42;29.00;99.90
23069;DHT22;11702;50.856;4.348;2022-08-19T13:14:09;29.10;99.90
23069;DHT22;11702;50.856;4.348;2022-08-19T13:16:36;29.20;99.90
23069;DHT22;11702;50.856;4.348;2022-08-19T13:19:04;29.30;99.90
23069;DHT22;11702;50.856;4.348;2022-08-19T13:21:31;29.40;99.90
23069;DHT22;11702;50.856;4.348;2022-08-19T13:23:57;29.30;99.90
23069;DHT22;11702;50.856;4.348;2022-08-19T13:26:23;29.10;99.90
23069;DHT22;11702;50.856;4.348;2022-08-19T13:28:49;29.00;99.90
23069;DHT22;11702;50.856;4.348;2022-08-19T13:31:35;28.40;99.90
23069;DHT22;11702;50.856;4.348;2022-08-19T13:34:28;28.70;99.90
23069;DHT22;11702;50.856;4.348;2022-08-19T13:36:54;28.70;99.90
23069;DHT22;11702;50.856;4.348;2022-08-19T13:39:19;28.90;99.90
23069;DHT22;11702;50.856;4.348;2022-08-19T13:41:46;28.80;99.90
23069;DHT22;11702;50.856;4.348;2022-08-19T13:44:14;28.90;99.90
23069;DHT22;11702;50.856;4.348;2022-08-19T13:46:41;29.20;99.90
23069;DHT22;11702;50.856;4.348;2022-08-19T13:49:10;29.20;99.90
23069;DHT22;11702;50.856;4.348;2022-08-19T13:51:37;29.40;99.90
23069;DHT22;11702;50.856;4.348;2022-08-19T13:54:02;29.40;99.90
23069;DHT22;11702;50.856;4.348;2022-08-19T13:56:31;29.20;99.90
23069;DHT22;11702;50.856;4.348;2022-08-19T13:58:56;28.90;99.90
23069;DHT22;11702;50.856;4.348;2022-08-19T14:01:23;28.90;99.90
23069;DHT22;11702;50.856;4.348;2022-08-19T14:03:49;28.80;99.90
23069;DHT22;11702;50.856;4.348;2022-08-19T14:06:15;28.60;99.90
23069;DHT22;11702;50.856;4.348;2022-08-19T14:08:42;28.10;99.90
23069;DHT22;11702;50.856;4.348;2022-08-19T14:11:08;27.80;99.90
23069;DHT22;11702;50.856;4.348;2022-08-19T14:13:34;27.40;99.90
23069;DHT22;11702;50.856;4.348;2022-08-19T14:16:00;27.00;99.90
23069;DHT22;11702;50.856;4.348;2022-08-19T14:18:26;26.80;99.90
23069;DHT22;11702;50.856;4.348;2022-08-19T14:20:52;26.50;99.90
23069;DHT22;11702;50.856;4.348;2022-08-19T14:23:18;26.40;99.90
23069;DHT22;11702;50.856;4.348;2022-08-19T14:25:44;26.40;99.90
23069;DHT22;11702;50.856;4.348;2022-08-19T14:28:10;26.30;99.90
23069;DHT22;11702;50.856;4.348;2022-08-19T14:30:37;26.30;99.90
23069;DHT22;11702;50.856;4.348;2022-08-19T14:33:04;26.40;99.90
23069;DHT22;11702;50.856;4.348;2022-08-19T14:35:32;26.40;99.90
23069;DHT22;11702;50.856;4.348;2022-08-19T14:38:04;26.30;99.90
23069;DHT22;11702;50.856;4.348;2022-08-19T14:40:31;26.30;99.90
23069;DHT22;11702;50.856;4.348;2022-08-19T14:43:01;26.20;99.90
23069;DHT22;11702;50.856;4.348;2022-08-19T14:45:34;25.90;99.90
23069;DHT22;11702;50.856;4.348;2022-08-19T14:48:00;25.70;99.90
23069;DHT22;11702;50.856;4.348;2022-08-19T14:50:26;25.30;99.90
23069;DHT22;11702;50.856;4.348;2022-08-19T14:53:02;24.90;99.90
23069;DHT22;11702;50.856;4.348;2022-08-19T14:55:30;24.60;99.90
23069;DHT22;11702;50.856;4.348;2022-08-19T14:57:55;24.50;99.90
23069;DHT22;11702;50.856;4.348;2022-08-19T15:00:21;24.50;99.90
23069;DHT22;11702;50.856;4.348;2022-08-19T15:02:49;24.50;99.90
23069;DHT22;11702;50.856;4.348;2022-08-19T15:05:15;24.60;99.90
23069;DHT22;11702;50.856;4.348;2022-08-19T15:07:42;24.80;99.90
23069;DHT22;11702;50.856;4.348;2022-08-19T15:10:10;25.00;99.90
23069;DHT22;11702;50.856;4.348;2022-08-19T15:12:37;25.20;99.90
23069;DHT22;11702;50.856;4.348;2022-08-19T15:15:06;25.40;99.90
23069;DHT22;11702;50.856;4.348;2022-08-19T15:17:32;25.60;99.90
23069;DHT22;11702;50.856;4.348;2022-08-19T15:19:58;25.70;99.90
23069;DHT22;11702;50.856;4.348;2022-08-19T15:22:24;25.70;99.90
23069;DHT22;11702;50.856;4.348;2022-08-19T15:24:49;25.70;99.90
23069;DHT22;11702;50.856;4.348;2022-08-19T15:27:15;25.70;99.90
23069;DHT22;11702;50.856;4.348;2022-08-19T15:29:41;25.70;99.90
23069;DHT22;11702;50.856;4.348;2022-08-19T15:32:07;25.70;99.90
23069;DHT22;11702;50.856;4.348;2022-08-19T15:34:34;25.50;99.90
23069;DHT22;11702;50.856;4.348;2022-08-19T15:37:01;25.50;99.90
23069;DHT22;11702;50.856;4.348;2022-08-19T15:39:28;25.70;99.90
23069;DHT22;11702;50.856;4.348;2022-08-19T15:41:55;25.70;99.90
23069;DHT22;11702;50.856;4.348;2022-08-19T15:44:21;25.70;99.90
23069;DHT22;11702;50.856;4.348;2022-08-19T15:46:47;25.70;99.90